Etusivu
METAR-TAF:

METAR-TAF

Lentoasemat :

Sundsvall-Timrån lentoasema

Sundsvall-Härnösand, Ruotsi

Leveyspiiri: 62-32N, Pituuspiiri: 017-27E, korkeus merenpinnasta: 4 m

Tämänhetkinen sää

Tämä raportti tehtiin 31 minuuttia sitten, kello 19.20 UTC
tyyntä
Lämpötila 4°C
Kosteus 87%
Ilmanpaine 1024 hPa
Näkyvyys 10 km tai enemmän
ei pilviä alle 1500 m:ssä eikä cumulonimbus-pilviä

METAR: ESNN 241920Z 00000KT CAVOK 04/02 Q1024

Aika: 21:51 (19:51 UTC)

Sääennuste

Tämä raportti tehtiin 2 tuntia ja 21 minuuttia sitten, kello 17.30 UTC
Ennuste voimassa 24. päivästä klo 18 UTC - 24. päivään klo 21 UTC
Tuuli 3 kn kaakosta
Näkyvyys 10 km tai enemmän
ei pilviä alle 1500 m:ssä eikä cumulonimbus-pilviä

TAF: ESNN 241730Z 2418/2421 13003KT CAVOK

Säähavainnot ja -ennusteet yli 4000 lentoasemalta (METAR- ja TAF-raportit).

Käytössä olevat sääasemat on merkitty karttaan keltaisilla ja punaisilla pisteillä.

Aseta hiiri pisteen päälle nähdäksesi sääaseman nimen.

Klikkaa sitten nähdäksesi säähavainnot ja -ennusteet.

Kartan vaihtaminen: klikkaa mustalla rastilla varustettuja vihreitä pisteitä, niin voit zoomata sisään; viivalla varustettua vihreää pistettä, niin voit zoomata ulos tai vihreitä nuolia, niin pääset viereisille kartoille.


METAR-TAF: